sensor_id;sensor_type;location;lat;lon;timestamp;pressure;altitude;pressure_sealevel;temperature;humidity
4133;BME280;2080;51.038;7.008;2023-05-09T00:00:03;47737.22;;;-142.53;98.51
4133;BME280;2080;51.038;7.008;2023-05-09T00:02:38;47737.22;;;-142.53;98.68
4133;BME280;2080;51.038;7.008;2023-05-09T00:05:06;47741.06;;;-142.53;98.76
4133;BME280;2080;51.038;7.008;2023-05-09T00:07:32;47796.91;;;-142.53;99.05
4133;BME280;2080;51.038;7.008;2023-05-09T00:09:59;47667.88;;;-142.53;99.03
4133;BME280;2080;51.038;7.008;2023-05-09T00:12:28;47725.66;;;-142.53;99.20
4133;BME280;2080;51.038;7.008;2023-05-09T00:14:54;47723.72;;;-142.53;99.32
4133;BME280;2080;51.038;7.008;2023-05-09T00:17:23;47742.97;;;-142.53;100.00
4133;BME280;2080;51.038;7.008;2023-05-09T00:19:49;47733.34;;;-142.53;99.58
4133;BME280;2080;51.038;7.008;2023-05-09T00:22:18;47725.66;;;-142.53;99.49
4133;BME280;2080;51.038;7.008;2023-05-09T00:24:46;47702.53;;;-142.53;100.00
4133;BME280;2080;51.038;7.008;2023-05-09T00:27:11;47700.63;;;-142.53;100.00
4133;BME280;2080;51.038;7.008;2023-05-09T00:29:37;47758.41;;;-142.53;100.00
4133;BME280;2080;51.038;7.008;2023-05-09T00:32:02;47729.50;;;-142.53;100.00
4133;BME280;2080;51.038;7.008;2023-05-09T00:34:30;47710.25;;;-142.53;100.00
4133;BME280;2080;51.038;7.008;2023-05-09T00:36:55;47754.53;;;-142.53;100.00
4133;BME280;2080;51.038;7.008;2023-05-09T00:39:21;47760.31;;;-142.53;100.00
4133;BME280;2080;51.038;7.008;2023-05-09T00:41:46;47694.84;;;-142.53;100.00
4133;BME280;2080;51.038;7.008;2023-05-09T00:44:11;47696.75;;;-142.53;100.00
4133;BME280;2080;51.038;7.008;2023-05-09T00:46:37;47742.97;;;-142.53;100.00
4133;BME280;2080;51.038;7.008;2023-05-09T00:49:05;47721.78;;;-142.53;100.00
4133;BME280;2080;51.038;7.008;2023-05-09T00:51:32;47764.16;;;-142.53;100.00
4133;BME280;2080;51.038;7.008;2023-05-09T00:53:57;47706.38;;;-142.53;100.00
4133;BME280;2080;51.038;7.008;2023-05-09T00:56:25;47694.84;;;-142.53;100.00
4133;BME280;2080;51.038;7.008;2023-05-09T00:58:51;47744.91;;;-142.53;100.00
4133;BME280;2080;51.038;7.008;2023-05-09T01:01:16;47725.66;;;-142.53;100.00
4133;BME280;2080;51.038;7.008;2023-05-09T01:03:42;47671.72;;;-142.53;100.00
4133;BME280;2080;51.038;7.008;2023-05-09T01:06:33;47729.50;;;-142.53;99.87
4133;BME280;2080;51.038;7.008;2023-05-09T01:09:20;47733.34;;;-142.53;99.28
4133;BME280;2080;51.038;7.008;2023-05-09T01:12:10;47725.66;;;-142.53;99.33
4133;BME280;2080;51.038;7.008;2023-05-09T01:20:03;47721.78;;;-142.53;99.11
4133;BME280;2080;51.038;7.008;2023-05-09T01:22:36;47698.69;;;-142.53;99.33
4133;BME280;2080;51.038;7.008;2023-05-09T01:25:43;47744.91;;;-142.53;99.92
4133;BME280;2080;51.038;7.008;2023-05-09T01:28:21;47748.75;;;-142.53;100.00
4133;BME280;2080;51.038;7.008;2023-05-09T01:30:50;47706.38;;;-142.53;100.00
4133;BME280;2080;51.038;7.008;2023-05-09T01:33:20;47733.34;;;-142.53;100.00
4133;BME280;2080;51.038;7.008;2023-05-09T01:35:50;47737.22;;;-142.53;100.00
4133;BME280;2080;51.038;7.008;2023-05-09T01:38:21;47725.66;;;-142.53;99.76
4133;BME280;2080;51.038;7.008;2023-05-09T01:40:53;47746.84;;;-142.53;100.00
4133;BME280;2080;51.038;7.008;2023-05-09T01:43:20;47727.56;;;-142.53;100.00
4133;BME280;2080;51.038;7.008;2023-05-09T01:45:47;47664.03;;;-142.53;100.00
4133;BME280;2080;51.038;7.008;2023-05-09T01:48:14;47725.66;;;-142.53;99.44
4133;BME280;2080;51.038;7.008;2023-05-09T01:50:43;47723.72;;;-142.53;99.00
4133;BME280;2080;51.038;7.008;2023-05-09T01:53:10;47702.53;;;-142.53;98.93
4133;BME280;2080;51.038;7.008;2023-05-09T01:55:38;47694.84;;;-142.53;98.09
4133;BME280;2080;51.038;7.008;2023-05-09T01:58:07;47719.88;;;-142.53;98.39
4133;BME280;2080;51.038;7.008;2023-05-09T02:00:33;47748.75;;;-142.53;98.54
4133;BME280;2080;51.038;7.008;2023-05-09T02:03:02;47725.66;;;-142.53;98.48
4133;BME280;2080;51.038;7.008;2023-05-09T02:05:31;47752.63;;;-142.53;98.37
4133;BME280;2080;51.038;7.008;2023-05-09T02:07:58;47766.09;;;-142.53;98.95
4133;BME280;2080;51.038;7.008;2023-05-09T02:10:26;47737.22;;;-142.53;98.88
4133;BME280;2080;51.038;7.008;2023-05-09T02:12:54;47702.53;;;-142.53;97.83
4133;BME280;2080;51.038;7.008;2023-05-09T02:15:21;47733.34;;;-142.53;96.38
4133;BME280;2080;51.038;7.008;2023-05-09T02:17:47;47702.53;;;-142.53;96.12
4133;BME280;2080;51.038;7.008;2023-05-09T02:20:12;47764.16;;;-142.53;96.77
4133;BME280;2080;51.038;7.008;2023-05-09T02:22:41;47721.78;;;-142.53;95.73
4133;BME280;2080;51.038;7.008;2023-05-09T02:25:10;47706.38;;;-142.53;95.54
4133;BME280;2080;51.038;7.008;2023-05-09T02:27:39;47694.84;;;-142.53;95.38
4133;BME280;2080;51.038;7.008;2023-05-09T02:30:07;47714.09;;;-142.53;95.74
4133;BME280;2080;51.038;7.008;2023-05-09T02:32:34;47764.16;;;-142.53;95.27
4133;BME280;2080;51.038;7.008;2023-05-09T02:35:01;47721.78;;;-142.53;94.88
4133;BME280;2080;51.038;7.008;2023-05-09T02:37:28;47729.50;;;-142.53;95.38
4133;BME280;2080;51.038;7.008;2023-05-09T02:39:56;47729.50;;;-142.53;95.17
4133;BME280;2080;51.038;7.008;2023-05-09T02:42:23;47737.22;;;-142.53;95.38
4133;BME280;2080;51.038;7.008;2023-05-09T02:44:52;47725.66;;;-142.53;95.62
4133;BME280;2080;51.038;7.008;2023-05-09T02:47:19;47744.91;;;-142.53;95.47
4133;BME280;2080;51.038;7.008;2023-05-09T02:49:47;47769.94;;;-142.53;95.39
4133;BME280;2080;51.038;7.008;2023-05-09T02:52:14;47725.66;;;-142.53;95.55
4133;BME280;2080;51.038;7.008;2023-05-09T02:54:40;47714.09;;;-142.53;95.65
4133;BME280;2080;51.038;7.008;2023-05-09T02:57:05;47737.22;;;-142.53;95.52
4133;BME280;2080;51.038;7.008;2023-05-09T02:59:31;47721.78;;;-142.53;95.20
4133;BME280;2080;51.038;7.008;2023-05-09T03:01:56;47737.22;;;-142.53;94.69
4133;BME280;2080;51.038;7.008;2023-05-09T03:04:24;47717.94;;;-142.53;95.49
4133;BME280;2080;51.038;7.008;2023-05-09T03:06:50;47733.34;;;-142.53;95.53
4133;BME280;2080;51.038;7.008;2023-05-09T03:09:18;47714.09;;;-142.53;94.76
4133;BME280;2080;51.038;7.008;2023-05-09T03:11:43;47714.09;;;-142.53;95.52
4133;BME280;2080;51.038;7.008;2023-05-09T03:14:08;47746.84;;;-142.53;95.38
4133;BME280;2080;51.038;7.008;2023-05-09T03:16:37;47748.75;;;-142.53;94.24
4133;BME280;2080;51.038;7.008;2023-05-09T03:19:02;47710.25;;;-142.53;95.42
4133;BME280;2080;51.038;7.008;2023-05-09T03:21:28;47744.91;;;-142.53;95.50
4133;BME280;2080;51.038;7.008;2023-05-09T03:23:53;47764.16;;;-142.53;95.40
4133;BME280;2080;51.038;7.008;2023-05-09T03:26:21;47741.06;;;-142.53;94.85
4133;BME280;2080;51.038;7.008;2023-05-09T03:28:47;47748.75;;;-142.53;94.85
4133;BME280;2080;51.038;7.008;2023-05-09T03:31:13;47737.22;;;-142.53;94.59
4133;BME280;2080;51.038;7.008;2023-05-09T03:33:39;47741.06;;;-142.53;94.79
4133;BME280;2080;51.038;7.008;2023-05-09T03:36:07;47702.53;;;-142.53;94.69
4133;BME280;2080;51.038;7.008;2023-05-09T03:38:32;47706.38;;;-142.53;95.26
4133;BME280;2080;51.038;7.008;2023-05-09T03:40:58;47735.28;;;-142.53;95.32
4133;BME280;2080;51.038;7.008;2023-05-09T03:43:23;47742.97;;;-142.53;94.59
4133;BME280;2080;51.038;7.008;2023-05-09T03:45:48;47791.13;;;-142.53;94.78
4133;BME280;2080;51.038;7.008;2023-05-09T03:48:17;47756.47;;;-142.53;95.03
4133;BME280;2080;51.038;7.008;2023-05-09T03:50:45;47719.88;;;-142.53;94.67
4133;BME280;2080;51.038;7.008;2023-05-09T03:53:10;47741.06;;;-142.53;94.50
4133;BME280;2080;51.038;7.008;2023-05-09T03:55:35;47725.66;;;-142.53;94.01
4133;BME280;2080;51.038;7.008;2023-05-09T03:58:06;47750.69;;;-142.53;94.11
4133;BME280;2080;51.038;7.008;2023-05-09T04:00:34;47744.91;;;-142.53;95.06
4133;BME280;2080;51.038;7.008;2023-05-09T04:02:59;47737.22;;;-142.53;95.57
4133;BME280;2080;51.038;7.008;2023-05-09T04:05:25;47752.63;;;-142.53;94.51
4133;BME280;2080;51.038;7.008;2023-05-09T04:07:51;47785.34;;;-142.53;94.26
4133;BME280;2080;51.038;7.008;2023-05-09T04:10:16;47768.03;;;-142.53;94.50
4133;BME280;2080;51.038;7.008;2023-05-09T04:12:47;47748.75;;;-142.53;94.21
4133;BME280;2080;51.038;7.008;2023-05-09T04:15:15;47729.50;;;-142.53;93.28
4133;BME280;2080;51.038;7.008;2023-05-09T04:17:42;47714.09;;;-142.53;94.01
4133;BME280;2080;51.038;7.008;2023-05-09T04:20:10;47741.06;;;-142.53;94.22
4133;BME280;2080;51.038;7.008;2023-05-09T04:22:39;47731.44;;;-142.53;94.61
4133;BME280;2080;51.038;7.008;2023-05-09T04:25:04;47733.34;;;-142.53;93.74
4133;BME280;2080;51.038;7.008;2023-05-09T04:27:30;47741.06;;;-142.53;94.12
4133;BME280;2080;51.038;7.008;2023-05-09T04:29:56;47717.94;;;-142.53;94.34
4133;BME280;2080;51.038;7.008;2023-05-09T04:32:21;47760.31;;;-142.53;94.61
4133;BME280;2080;51.038;7.008;2023-05-09T04:34:48;47752.63;;;-142.53;94.81
4133;BME280;2080;51.038;7.008;2023-05-09T04:37:14;47744.91;;;-142.53;94.20
4133;BME280;2080;51.038;7.008;2023-05-09T04:39:39;47735.28;;;-142.53;95.45
4133;BME280;2080;51.038;7.008;2023-05-09T04:42:05;47764.16;;;-142.53;96.01
4133;BME280;2080;51.038;7.008;2023-05-09T04:44:30;47744.91;;;-142.53;96.01
4133;BME280;2080;51.038;7.008;2023-05-09T04:46:57;47762.25;;;-142.53;95.65
4133;BME280;2080;51.038;7.008;2023-05-09T04:49:23;47729.50;;;-142.53;95.06
4133;BME280;2080;51.038;7.008;2023-05-09T04:51:50;47733.34;;;-142.53;95.37
4133;BME280;2080;51.038;7.008;2023-05-09T04:54:18;47737.22;;;-142.53;95.43
4133;BME280;2080;51.038;7.008;2023-05-09T04:56:45;47706.38;;;-142.53;95.70
4133;BME280;2080;51.038;7.008;2023-05-09T04:59:11;47771.88;;;-142.53;95.35
4133;BME280;2080;51.038;7.008;2023-05-09T05:01:36;47744.91;;;-142.53;95.44
4133;BME280;2080;51.038;7.008;2023-05-09T05:04:01;47750.69;;;-142.53;95.29
4133;BME280;2080;51.038;7.008;2023-05-09T05:06:29;47760.31;;;-142.53;95.51
4133;BME280;2080;51.038;7.008;2023-05-09T05:08:57;47748.75;;;-142.53;95.07
4133;BME280;2080;51.038;7.008;2023-05-09T05:11:22;47737.22;;;-142.53;94.71
4133;BME280;2080;51.038;7.008;2023-05-09T05:13:47;47729.50;;;-142.53;94.69
4133;BME280;2080;51.038;7.008;2023-05-09T05:16:18;47725.66;;;-142.53;94.17
4133;BME280;2080;51.038;7.008;2023-05-09T05:18:43;47760.31;;;-142.53;93.14
4133;BME280;2080;51.038;7.008;2023-05-09T05:21:09;47725.66;;;-142.53;92.45
4133;BME280;2080;51.038;7.008;2023-05-09T05:23:36;47685.19;;;-142.53;91.90
4133;BME280;2080;51.038;7.008;2023-05-09T05:26:02;47721.78;;;-142.53;91.03
4133;BME280;2080;51.038;7.008;2023-05-09T05:28:27;47725.66;;;-142.53;89.92
4133;BME280;2080;51.038;7.008;2023-05-09T05:30:53;47714.09;;;-142.53;89.67
4133;BME280;2080;51.038;7.008;2023-05-09T05:33:20;47690.97;;;-142.53;89.14
4133;BME280;2080;51.038;7.008;2023-05-09T05:35:46;47741.06;;;-142.53;88.33
4133;BME280;2080;51.038;7.008;2023-05-09T05:38:12;47721.78;;;-142.53;88.08
4133;BME280;2080;51.038;7.008;2023-05-09T05:40:37;47708.31;;;-142.53;88.01
4133;BME280;2080;51.038;7.008;2023-05-09T05:43:02;47731.44;;;-142.53;87.55
4133;BME280;2080;51.038;7.008;2023-05-09T05:45:30;47714.09;;;-142.53;87.41
4133;BME280;2080;51.038;7.008;2023-05-09T05:47:55;47733.34;;;-142.53;87.46
4133;BME280;2080;51.038;7.008;2023-05-09T05:50:27;47725.66;;;-142.53;86.86
4133;BME280;2080;51.038;7.008;2023-05-09T05:52:55;47764.16;;;-142.53;86.31
4133;BME280;2080;51.038;7.008;2023-05-09T05:55:20;47717.94;;;-142.53;85.58
4133;BME280;2080;51.038;7.008;2023-05-09T05:57:48;47656.31;;;-142.53;85.33
4133;BME280;2080;51.038;7.008;2023-05-09T06:00:13;47721.78;;;-142.53;84.56
4133;BME280;2080;51.038;7.008;2023-05-09T06:02:42;47706.38;;;-142.53;82.22
4133;BME280;2080;51.038;7.008;2023-05-09T06:05:12;47837.38;;;-142.53;81.06
4133;BME280;2080;51.038;7.008;2023-05-09T06:07:39;47694.84;;;-142.53;81.32
4133;BME280;2080;51.038;7.008;2023-05-09T06:10:11;47706.38;;;-142.53;81.24
4133;BME280;2080;51.038;7.008;2023-05-09T06:12:36;47675.56;;;-142.53;80.00
4133;BME280;2080;51.038;7.008;2023-05-09T06:15:02;47679.44;;;-142.53;79.21
4133;BME280;2080;51.038;7.008;2023-05-09T06:17:30;47687.13;;;-142.53;78.62
4133;BME280;2080;51.038;7.008;2023-05-09T06:19:55;47717.94;;;-142.53;79.01
4133;BME280;2080;51.038;7.008;2023-05-09T06:22:25;47698.69;;;-142.53;78.45
4133;BME280;2080;51.038;7.008;2023-05-09T06:24:50;47694.84;;;-142.53;78.74
4133;BME280;2080;51.038;7.008;2023-05-09T06:27:16;47660.16;;;-142.53;78.12
4133;BME280;2080;51.038;7.008;2023-05-09T06:29:41;47660.16;;;-142.53;77.54
4133;BME280;2080;51.038;7.008;2023-05-09T06:32:08;47671.72;;;-142.53;75.97
4133;BME280;2080;51.038;7.008;2023-05-09T06:34:36;47671.72;;;-142.53;75.63
4133;BME280;2080;51.038;7.008;2023-05-09T06:37:01;47656.31;;;-142.53;75.25
4133;BME280;2080;51.038;7.008;2023-05-09T06:39:27;47687.13;;;-142.53;74.45
4133;BME280;2080;51.038;7.008;2023-05-09T06:41:52;47656.31;;;-142.53;74.03
4133;BME280;2080;51.038;7.008;2023-05-09T06:44:18;47648.63;;;-142.53;72.16
4133;BME280;2080;51.038;7.008;2023-05-09T06:46:45;47629.34;;;-142.53;73.25
4133;BME280;2080;51.038;7.008;2023-05-09T06:49:10;47667.88;;;-142.53;72.53
4133;BME280;2080;51.038;7.008;2023-05-09T06:51:37;47671.72;;;-142.53;71.43
4133;BME280;2080;51.038;7.008;2023-05-09T06:54:05;47621.66;;;-142.53;71.42
4133;BME280;2080;51.038;7.008;2023-05-09T06:56:30;47664.03;;;-142.53;71.67
4133;BME280;2080;51.038;7.008;2023-05-09T06:58:56;47569.66;;;-142.53;70.76
4133;BME280;2080;51.038;7.008;2023-05-09T07:01:21;47656.31;;;-142.53;69.34
4133;BME280;2080;51.038;7.008;2023-05-09T07:03:47;47654.38;;;-142.53;68.50
4133;BME280;2080;51.038;7.008;2023-05-09T07:06:16;47612.00;;;-142.53;67.70
4133;BME280;2080;51.038;7.008;2023-05-09T07:08:42;47640.91;;;-142.53;67.89
4133;BME280;2080;51.038;7.008;2023-05-09T07:11:10;47664.03;;;-142.53;67.95
4133;BME280;2080;51.038;7.008;2023-05-09T07:13:35;47633.19;;;-142.53;68.43
4133;BME280;2080;51.038;7.008;2023-05-09T07:16:00;47660.16;;;-142.53;67.69
4133;BME280;2080;51.038;7.008;2023-05-09T07:18:26;47664.03;;;-142.53;66.99
4133;BME280;2080;51.038;7.008;2023-05-09T07:20:51;47635.13;;;-142.53;66.27
4133;BME280;2080;51.038;7.008;2023-05-09T07:23:16;47656.31;;;-142.53;65.80
4133;BME280;2080;51.038;7.008;2023-05-09T07:25:42;47664.03;;;-142.53;63.89
4133;BME280;2080;51.038;7.008;2023-05-09T07:28:09;47648.63;;;-142.53;63.92
4133;BME280;2080;51.038;7.008;2023-05-09T07:30:36;47656.31;;;-142.53;63.79
4133;BME280;2080;51.038;7.008;2023-05-09T07:33:04;47633.19;;;-142.53;62.10
4133;BME280;2080;51.038;7.008;2023-05-09T07:35:32;47660.16;;;-142.53;61.20
4133;BME280;2080;51.038;7.008;2023-05-09T07:38:00;47640.91;;;-142.53;60.23
4133;BME280;2080;51.038;7.008;2023-05-09T07:40:25;47590.84;;;-142.53;59.63
4133;BME280;2080;51.038;7.008;2023-05-09T07:42:51;47613.94;;;-142.53;58.71
4133;BME280;2080;51.038;7.008;2023-05-09T07:45:20;47617.78;;;-142.53;58.23
4133;BME280;2080;51.038;7.008;2023-05-09T07:47:46;47612.00;;;-142.53;56.20
4133;BME280;2080;51.038;7.008;2023-05-09T07:50:11;47650.53;;;-142.53;55.22
4133;BME280;2080;51.038;7.008;2023-05-09T07:52:39;47602.38;;;-142.53;54.61
4133;BME280;2080;51.038;7.008;2023-05-09T07:55:04;47586.97;;;-142.53;54.17
4133;BME280;2080;51.038;7.008;2023-05-09T07:57:32;47621.66;;;-142.53;53.79
4133;BME280;2080;51.038;7.008;2023-05-09T08:00:02;47613.94;;;-142.53;52.73
4133;BME280;2080;51.038;7.008;2023-05-09T08:02:30;47606.25;;;-142.53;53.20
4133;BME280;2080;51.038;7.008;2023-05-09T08:04:55;47606.25;;;-142.53;52.87
4133;BME280;2080;51.038;7.008;2023-05-09T08:07:21;47590.84;;;-142.53;52.01
4133;BME280;2080;51.038;7.008;2023-05-09T08:09:46;47613.94;;;-142.53;50.95
4133;BME280;2080;51.038;7.008;2023-05-09T08:12:12;47548.47;;;-142.53;50.69
4133;BME280;2080;51.038;7.008;2023-05-09T08:14:39;47560.00;;;-142.53;51.79
4133;BME280;2080;51.038;7.008;2023-05-09T08:17:10;47567.72;;;-142.53;51.64
4133;BME280;2080;51.038;7.008;2023-05-09T08:19:38;47583.13;;;-142.53;50.03
4133;BME280;2080;51.038;7.008;2023-05-09T08:22:03;47598.53;;;-142.53;49.40
4133;BME280;2080;51.038;7.008;2023-05-09T08:24:28;47606.25;;;-142.53;49.30
4133;BME280;2080;51.038;7.008;2023-05-09T08:26:54;47841.22;;;-142.53;50.27
4133;BME280;2080;51.038;7.008;2023-05-09T08:29:19;47586.97;;;-142.53;50.41
4133;BME280;2080;51.038;7.008;2023-05-09T08:31:45;47623.56;;;-142.53;49.84
4133;BME280;2080;51.038;7.008;2023-05-09T08:34:13;47613.94;;;-142.53;49.81
4133;BME280;2080;51.038;7.008;2023-05-09T08:36:38;47590.84;;;-142.53;49.67
4133;BME280;2080;51.038;7.008;2023-05-09T08:39:07;47586.97;;;-142.53;48.61
4133;BME280;2080;51.038;7.008;2023-05-09T08:41:33;47590.84;;;-142.53;47.84
4133;BME280;2080;51.038;7.008;2023-05-09T08:44:01;47621.66;;;-142.53;48.17
4133;BME280;2080;51.038;7.008;2023-05-09T08:46:32;47583.13;;;-142.53;48.03
4133;BME280;2080;51.038;7.008;2023-05-09T08:49:00;47575.44;;;-142.53;46.89
4133;BME280;2080;51.038;7.008;2023-05-09T08:51:28;47598.53;;;-142.53;46.93
4133;BME280;2080;51.038;7.008;2023-05-09T08:53:56;47610.09;;;-142.53;46.78
4133;BME280;2080;51.038;7.008;2023-05-09T08:56:25;47546.53;;;-142.53;45.50
4133;BME280;2080;51.038;7.008;2023-05-09T08:58:54;47561.94;;;-142.53;46.12
4133;BME280;2080;51.038;7.008;2023-05-09T09:01:23;47594.69;;;-142.53;46.96
4133;BME280;2080;51.038;7.008;2023-05-09T09:03:50;47637.06;;;-142.53;47.60
4133;BME280;2080;51.038;7.008;2023-05-09T09:06:16;47637.06;;;-142.53;46.47
4133;BME280;2080;51.038;7.008;2023-05-09T09:08:45;47586.97;;;-142.53;45.17
4133;BME280;2080;51.038;7.008;2023-05-09T09:11:12;47575.44;;;-142.53;45.01
4133;BME280;2080;51.038;7.008;2023-05-09T09:13:39;47598.53;;;-142.53;44.94
4133;BME280;2080;51.038;7.008;2023-05-09T09:16:08;47590.84;;;-142.53;44.59
4133;BME280;2080;51.038;7.008;2023-05-09T09:18:35;47579.28;;;-142.53;44.93
4133;BME280;2080;51.038;7.008;2023-05-09T09:21:11;47567.72;;;-142.53;44.81
4133;BME280;2080;51.038;7.008;2023-05-09T09:23:40;47567.72;;;-142.53;44.36
4133;BME280;2080;51.038;7.008;2023-05-09T09:26:07;47586.97;;;-142.53;43.48
4133;BME280;2080;51.038;7.008;2023-05-09T09:28:33;47556.16;;;-142.53;43.05
4133;BME280;2080;51.038;7.008;2023-05-09T09:31:01;47594.69;;;-142.53;41.81
4133;BME280;2080;51.038;7.008;2023-05-09T09:33:28;47577.34;;;-142.53;41.00
4133;BME280;2080;51.038;7.008;2023-05-09T09:35:58;47586.97;;;-142.53;41.16
4133;BME280;2080;51.038;7.008;2023-05-09T09:38:24;47604.31;;;-142.53;41.18
4133;BME280;2080;51.038;7.008;2023-05-09T09:40:56;47536.91;;;-142.53;40.45
4133;BME280;2080;51.038;7.008;2023-05-09T09:43:28;47517.66;;;-142.53;40.49
4133;BME280;2080;51.038;7.008;2023-05-09T09:45:55;47542.69;;;-142.53;39.43
4133;BME280;2080;51.038;7.008;2023-05-09T09:48:34;47561.94;;;-142.53;39.39
4133;BME280;2080;51.038;7.008;2023-05-09T09:53:38;47540.75;;;-142.53;38.59
4133;BME280;2080;51.038;7.008;2023-05-09T09:56:04;47540.75;;;-142.53;38.62
4133;BME280;2080;51.038;7.008;2023-05-09T09:58:29;47534.97;;;-142.53;37.40
4133;BME280;2080;51.038;7.008;2023-05-09T10:03:41;47521.50;;;-142.53;38.18
4133;BME280;2080;51.038;7.008;2023-05-09T10:06:13;47533.06;;;-142.53;37.60
4133;BME280;2080;51.038;7.008;2023-05-09T10:08:44;47513.78;;;-142.53;37.60
4133;BME280;2080;51.038;7.008;2023-05-09T10:11:13;47513.78;;;-142.53;36.52
4133;BME280;2080;51.038;7.008;2023-05-09T10:13:39;47540.75;;;-142.53;36.36
4133;BME280;2080;51.038;7.008;2023-05-09T10:16:10;47517.66;;;-142.53;36.85
4133;BME280;2080;51.038;7.008;2023-05-09T10:18:36;47509.94;;;-142.53;35.87
4133;BME280;2080;51.038;7.008;2023-05-09T10:21:01;47521.50;;;-142.53;36.09
4133;BME280;2080;51.038;7.008;2023-05-09T10:23:33;47467.56;;;-142.53;36.15
4133;BME280;2080;51.038;7.008;2023-05-09T10:28:37;47515.72;;;-142.53;35.83
4133;BME280;2080;51.038;7.008;2023-05-09T10:33:49;47506.09;;;-142.53;35.91
4133;BME280;2080;51.038;7.008;2023-05-09T10:36:21;47552.31;;;-142.53;36.11
4133;BME280;2080;51.038;7.008;2023-05-09T10:38:48;47552.31;;;-142.53;35.76
4133;BME280;2080;51.038;7.008;2023-05-09T10:41:17;47448.31;;;-142.53;35.82
4133;BME280;2080;51.038;7.008;2023-05-09T10:43:48;47496.47;;;-142.53;35.55
4133;BME280;2080;51.038;7.008;2023-05-09T10:46:17;47513.78;;;-142.53;35.65
4133;BME280;2080;51.038;7.008;2023-05-09T10:48:42;47486.84;;;-142.53;35.91
4133;BME280;2080;51.038;7.008;2023-05-09T10:51:09;47498.38;;;-142.53;36.33
4133;BME280;2080;51.038;7.008;2023-05-09T10:53:48;47498.38;;;-142.53;35.92
4133;BME280;2080;51.038;7.008;2023-05-09T10:56:31;47496.47;;;-142.53;36.11
4133;BME280;2080;51.038;7.008;2023-05-09T10:58:59;47450.25;;;-142.53;36.71
4133;BME280;2080;51.038;7.008;2023-05-09T11:01:32;47544.59;;;-142.53;36.24
4133;BME280;2080;51.038;7.008;2023-05-09T11:04:00;47506.09;;;-142.53;36.28
4133;BME280;2080;51.038;7.008;2023-05-09T11:09:36;47517.66;;;-142.53;36.57
4133;BME280;2080;51.038;7.008;2023-05-09T11:12:13;47496.47;;;-142.53;35.98
4133;BME280;2080;51.038;7.008;2023-05-09T11:14:44;47482.97;;;-142.53;35.49
4133;BME280;2080;51.038;7.008;2023-05-09T11:17:11;47513.78;;;-142.53;35.48
4133;BME280;2080;51.038;7.008;2023-05-09T11:22:21;47498.38;;;-142.53;35.87
4133;BME280;2080;51.038;7.008;2023-05-09T11:24:51;47479.13;;;-142.53;35.60
4133;BME280;2080;51.038;7.008;2023-05-09T11:27:24;47467.56;;;-142.53;35.14
4133;BME280;2080;51.038;7.008;2023-05-09T11:29:55;47423.28;;;-142.53;35.15
4133;BME280;2080;51.038;7.008;2023-05-09T11:32:53;47475.28;;;-142.53;35.08
4133;BME280;2080;51.038;7.008;2023-05-09T11:35:23;47508.00;;;-142.53;35.24
4133;BME280;2080;51.038;7.008;2023-05-09T11:38:06;47448.31;;;-142.53;34.82
4133;BME280;2080;51.038;7.008;2023-05-09T11:40:34;47467.56;;;-142.53;35.08
4133;BME280;2080;51.038;7.008;2023-05-09T11:43:05;47459.88;;;-142.53;34.56
4133;BME280;2080;51.038;7.008;2023-05-09T11:45:32;47496.47;;;-142.53;34.47
4133;BME280;2080;51.038;7.008;2023-05-09T11:47:59;47481.06;;;-142.53;35.14
4133;BME280;2080;51.038;7.008;2023-05-09T11:50:26;47450.25;;;-142.53;34.65
4133;BME280;2080;51.038;7.008;2023-05-09T11:52:52;47482.97;;;-142.53;34.78
4133;BME280;2080;51.038;7.008;2023-05-09T11:55:25;47438.69;;;-142.53;34.50
4133;BME280;2080;51.038;7.008;2023-05-09T11:57:54;47459.88;;;-142.53;34.70
4133;BME280;2080;51.038;7.008;2023-05-09T12:00:24;47452.16;;;-142.53;34.52
4133;BME280;2080;51.038;7.008;2023-05-09T12:02:51;47479.13;;;-142.53;34.36
4133;BME280;2080;51.038;7.008;2023-05-09T12:05:19;47494.53;;;-142.53;34.93
4133;BME280;2080;51.038;7.008;2023-05-09T12:07:45;47508.00;;;-142.53;34.86
4133;BME280;2080;51.038;7.008;2023-05-09T12:10:17;47509.94;;;-142.53;34.72
4133;BME280;2080;51.038;7.008;2023-05-09T12:12:45;47490.69;;;-142.53;35.13
4133;BME280;2080;51.038;7.008;2023-05-09T12:15:12;47459.88;;;-142.53;35.14
4133;BME280;2080;51.038;7.008;2023-05-09T12:17:41;47477.19;;;-142.53;35.03
4133;BME280;2080;51.038;7.008;2023-05-09T12:20:08;47481.06;;;-142.53;34.89
4133;BME280;2080;51.038;7.008;2023-05-09T12:22:34;47482.97;;;-142.53;34.91
4133;BME280;2080;51.038;7.008;2023-05-09T12:25:04;47509.94;;;-142.53;34.45
4133;BME280;2080;51.038;7.008;2023-05-09T12:27:35;47467.56;;;-142.53;34.96
4133;BME280;2080;51.038;7.008;2023-05-09T12:30:01;47477.19;;;-142.53;34.47
4133;BME280;2080;51.038;7.008;2023-05-09T12:32:32;47481.06;;;-142.53;34.38
4133;BME280;2080;51.038;7.008;2023-05-09T12:34:59;47448.31;;;-142.53;35.16
4133;BME280;2080;51.038;7.008;2023-05-09T12:37:24;47471.41;;;-142.53;34.96
4133;BME280;2080;51.038;7.008;2023-05-09T12:40:10;47502.25;;;-142.53;34.84
4133;BME280;2080;51.038;7.008;2023-05-09T12:42:42;47498.38;;;-142.53;34.80
4133;BME280;2080;51.038;7.008;2023-05-09T12:45:10;47498.38;;;-142.53;34.48
4133;BME280;2080;51.038;7.008;2023-05-09T12:47:36;47525.34;;;-142.53;35.25
4133;BME280;2080;51.038;7.008;2023-05-09T12:50:06;47502.25;;;-142.53;35.59
4133;BME280;2080;51.038;7.008;2023-05-09T12:52:38;47513.78;;;-142.53;35.64
4133;BME280;2080;51.038;7.008;2023-05-09T12:55:06;47475.28;;;-142.53;35.78
4133;BME280;2080;51.038;7.008;2023-05-09T12:57:32;47529.19;;;-142.53;37.20
4133;BME280;2080;51.038;7.008;2023-05-09T12:59:58;47509.94;;;-142.53;41.81
4133;BME280;2080;51.038;7.008;2023-05-09T13:02:27;47513.78;;;-142.53;42.42
4133;BME280;2080;51.038;7.008;2023-05-09T13:05:11;47494.53;;;-142.53;42.94
4133;BME280;2080;51.038;7.008;2023-05-09T13:07:40;47529.19;;;-142.53;44.22
4133;BME280;2080;51.038;7.008;2023-05-09T13:10:13;47540.75;;;-142.53;44.94
4133;BME280;2080;51.038;7.008;2023-05-09T13:12:39;47456.00;;;-142.53;43.91
4133;BME280;2080;51.038;7.008;2023-05-09T13:15:09;47506.09;;;-142.53;44.63
4133;BME280;2080;51.038;7.008;2023-05-09T13:17:37;47467.56;;;-142.53;44.87
4133;BME280;2080;51.038;7.008;2023-05-09T13:20:03;47506.09;;;-142.53;43.75
4133;BME280;2080;51.038;7.008;2023-05-09T13:22:34;47502.25;;;-142.53;43.19
4133;BME280;2080;51.038;7.008;2023-05-09T13:24:59;47529.19;;;-142.53;42.84